Main page
Satellite images 15-day forecastsClimateMarine weather Cyclones Lightning AirportsFAQ Newsletter About
Weather : Europe Africa North America South America Asia Australia-Oceania Others
Languages Contact

Budapest, Hungary

Ferihegy

latitude: 47-26N, longitude: 019-16E, elevation: 151 m


METAR: LHBP 252000Z 08004KT 4000 BR SCT004 OVC015 02/02 Q1027 NOSIG
TAF: LHBP 251700Z 2518/2618 VRB03KT 6000 BKN030 TEMPO 2520/2608 1500 BR OVC008 BECMG 2608/2611 09006KT 8000 BKN020

Time: 21:33 (20:33 UTC)

Current weather observation

The report was made 33 minutes ago, at 20:00 UTC
Wind 4 kt from the East
Temperature 2°C
Humidity 100%
Pressure 1027 hPa
Visibility: 4000 m
Scattered clouds at a height of 400 ft
Overcast at a height of 1500 ft
mist

Change units

Forecast

The report was made 3 hours and 33 minutes ago, at 17:00 UTC
Forecast valid from 25 at 18 UTC to 26 at 18 UTC
Wind 3 kt from variable directions
Visibility: 6000 m
Broken clouds at a height of 3000 ft
Temporary
from 25 at 20 UTC to 26 at 08 UTC
Visibility: 1500 m
Overcast at a height of 800 ft
mist
Becoming
from 26 at 08 UTC to 26 at 11 UTC
Wind 6 kt from the East
Visibility: 8000 m
Broken clouds at a height of 2000 ft
The information on this site is subject to a disclaimer
Weather : Europe Africa North America South America Asia Australia-Oceania Others
Satellite images 15-day forecastsClimateMarine weather Cyclones Lightning AirportsFAQ Languages Contact Newsletter About